Terminal Aerodrome Forecast
Issued by NWS North Platte, NE

Home | Current Version | Previous Version | Graphics & Text | Print | Product List | Glossary On
Versions: 1 2 3 4 5 6 7 8 9 10 11 12 13 14 15 16 17
000
FTUS43 KLBF 222334
TAFVTN
TAF
KVTN 222334Z 2300/2324 16004KT P6SM SCT018 OVC050
     FM230300 VRB03KT P6SM OVC035
     FM230800 29006KT P6SM BKN008
     FM231100 29005KT P6SM BKN020
     FM231700 32005KT P6SM SCT030
     FM232100 VRB03KT P6SM SCT250=

USA.gov is the U.S. government's official web portal to all federal, state and local government web resources and services.